Plumtree, NC

2:50 AM EDT on September 20, 2014 (GMT -0400)
Morganton-Lenoir | Change Station
CLOSE
Current Station
Airport
Location: Morganton,
Elevation: 1270 ft
Nearby Weather Stations

Elev 1270 ft 35.82 °N, 81.61 °W | Updated 15 minutes ago

Fog
Fog
63 °F
Feels Like 63 °F
N
0
Wind Variable Wind from North

Today
High -- | Low -- °F
--% Chance of Precip.
Yesterday
High -- | Low -- °F
Precip. -- in
7:14 AM 7:27 PM
Waning Crescent, 14% visible
Pressure 30.29 in
Visibility 7.0 miles
Clouds Overcast 1300 ft
Dew Point 62 °F
Humidity 99%
Rainfall 0.00 in
Snow Depth Not available.
UV 0 out of 12
Pollen 5.70 out of 12
Air Quality Not available.
Flu Activity Not available.
METAR KMRN 200635Z AUTO 00000KT 7SM OVC013 17/17 A3029 RMK AO2 T01710169

More Conditions Fewer Conditions

Pressure 30.29 in
Visibility 7.0 miles
Clouds Overcast 1300 ft
Dew Point 62 °F
Humidity 99%
Rainfall 0.00 in
Snow Depth Not available.
UV 0 out of 12
Pollen 5.70 out of 12
Air Quality Not available.
Flu Activity Not available.
METAR KMRN 200635Z AUTO 00000KT 7SM OVC013 17/17 A3029 RMK AO2 T01710169

More Conditions Fewer Conditions

10-Day Weather Forecast

Almanac

Astronomy

Sep. 20, 2014 Rise Set
Actual Time 7:14 AM EDT 7:27 PM EDT
Civil Twilight 6:48 AM EDT 7:53 PM EDT
Nautical Twilight 6:18 AM EDT 8:23 PM EDT
Astronomical Twilight 5:48 AM EDT 8:53 PM EDT
Moon 3:57 AM EDT 5:26 PM EDT
Length of Visible Light 13h 04m
Length of Day
12h 13m
Tomorrow will be 2m 16s shorter.
Waning Crescent, 14% of the Moon is Illuminated
Today
Waning Crescent
Sep 24
New
Oct 1
First Quarter
Oct 8
Full
Oct 15
Last Quarter

Today's Extremes

State Highs State Lows

Community

WunderPhotos

Upload Photos

1,754,779 photos uploaded!

WunderBlogs® & News

Nearby

Snow Depth

Station Depth Elevation
No new snow has been reported.

Earthquake Activity

City Distance Mag. Time & Date
No recent earthquake activity has been reported nearby.
Minimum magnitude displayed is 2.5.

Coastal Water Temperatures

Place Temperature
No Stations Reporting

Nearby Weather Stations